Time;durP1;ratioP1;P1;durP2;ratioP2;P2;SDS_P1;SDS_P2;PMS_P1;PMS_P2;Temp;Humidity;BMP_temperature;BMP_pressure;BME280_temperature;BME280_humidity;BME280_pressure;Samples;Min_cycle;Max_cycle;Signal;HPM_P1;HPM_P2
2022/05/26 00:00:01;;;;;;;3.53;1.73;;;21.90;56.40;;;;;;4929705;28;92461;-85
2022/05/26 00:02:29;;;;;;;3.35;1.90;;;21.80;56.40;;;;;;4928173;28;96895;-87
2022/05/26 00:04:55;;;;;;;3.38;1.73;;;21.80;56.40;;;;;;4929583;28;93633;-85
2022/05/26 00:07:20;;;;;;;4.25;2.10;;;21.80;56.40;;;;;;4929449;28;91987;-88
2022/05/26 00:09:46;;;;;;;6.15;2.00;;;21.90;56.30;;;;;;4929127;28;91977;-84
2022/05/26 00:12:13;;;;;;;5.53;2.17;;;21.80;56.30;;;;;;4928837;28;94345;-87
2022/05/26 00:14:40;;;;;;;5.80;1.70;;;21.80;56.50;;;;;;4930220;28;92853;-84
2022/05/26 00:17:06;;;;;;;3.40;1.75;;;21.80;56.20;;;;;;4928604;28;92023;-83
2022/05/26 00:19:32;;;;;;;4.40;2.17;;;21.90;56.50;;;;;;4927630;28;92110;-84
2022/05/26 00:21:58;;;;;;;3.70;2.13;;;21.80;56.50;;;;;;4928016;28;96026;-82
2022/05/26 00:24:24;;;;;;;3.88;1.90;;;21.80;56.50;;;;;;4932184;28;92649;-84
2022/05/26 00:26:49;;;;;;;2.60;1.45;;;21.80;56.50;;;;;;4930187;28;92971;-82
2022/05/26 00:29:15;;;;;;;3.17;1.98;;;21.80;56.50;;;;;;4932338;28;92865;-83
2022/05/26 00:31:41;;;;;;;4.00;2.08;;;21.80;56.40;;;;;;4931747;28;92906;-83
2022/05/26 00:34:07;;;;;;;5.00;1.80;;;21.80;56.50;;;;;;4931324;28;92774;-84
2022/05/26 00:36:41;;;;;;;3.45;1.60;;;21.80;56.40;;;;;;4932207;28;92205;-83
2022/05/26 00:39:06;;;;;;;3.45;2.03;;;21.80;56.40;;;;;;4932210;28;92467;-85
2022/05/26 00:41:32;;;;;;;4.93;1.70;;;21.80;56.30;;;;;;4931703;28;93052;-83
2022/05/26 00:43:58;;;;;;;2.47;1.67;;;21.80;56.30;;;;;;4932176;28;92740;-83
2022/05/26 00:46:35;;;;;;;3.53;1.80;;;21.80;56.30;;;;;;4932124;28;92176;-83
2022/05/26 00:49:01;;;;;;;3.50;2.00;;;21.80;56.30;;;;;;4931195;28;92273;-84
2022/05/26 00:51:31;;;;;;;3.53;1.70;;;21.80;56.30;;;;;;4932025;28;93502;-82
2022/05/26 00:54:04;;;;;;;3.83;1.83;;;21.80;56.30;;;;;;4931775;28;93302;-83
2022/05/26 00:56:32;;;;;;;2.60;1.88;;;21.80;56.30;;;;;;4931480;28;92943;-84
2022/05/26 00:59:14;;;;;;;2.92;1.80;;;21.80;56.30;;;;;;4947245;28;92865;-86
2022/05/26 01:01:40;;;;;;;4.28;1.80;;;21.80;56.30;;;;;;4930674;28;92722;-84
2022/05/26 01:04:10;;;;;;;2.88;1.88;;;21.80;56.30;;;;;;4929157;28;93465;-83
2022/05/26 01:06:47;;;;;;;4.18;1.95;;;21.80;56.40;;;;;;4930196;28;92865;-83
2022/05/26 01:09:13;;;;;;;3.45;2.00;;;21.80;56.40;;;;;;4937333;28;91244;-84
2022/05/26 01:11:41;;;;;;;2.42;1.80;;;21.80;56.40;;;;;;4931109;28;93905;-83
2022/05/26 01:14:12;;;;;;;2.90;1.70;;;21.80;56.40;;;;;;4930281;28;93557;-84
2022/05/26 01:16:58;;;;;;;4.13;2.03;;;21.80;56.40;;;;;;4929915;28;93457;-83
2022/05/26 01:19:39;;;;;;;2.88;1.70;;;21.80;56.40;;;;;;4930364;28;92243;-84
2022/05/26 01:22:24;;;;;;;4.22;2.13;;;21.80;56.40;;;;;;4932306;28;95847;-83
2022/05/26 01:25:08;;;;;;;1.95;1.35;;;21.80;56.40;;;;;;4928716;28;94893;-83
2022/05/26 01:27:40;;;;;;;2.20;1.58;;;21.80;56.50;;;;;;4929282;28;92835;-84
2022/05/26 01:30:32;;;;;;;2.85;1.75;;;21.80;56.40;;;;;;4929093;28;92955;-84
2022/05/26 01:33:07;;;;;;;2.33;1.40;;;21.70;56.40;;;;;;4927218;28;93091;-85
2022/05/26 01:36:13;;;;;;;2.70;1.65;;;21.80;56.30;;;;;;4930371;28;92435;-85
2022/05/26 01:39:13;;;;;;;2.90;1.60;;;21.70;56.40;;;;;;4930543;28;92163;-83
2022/05/26 01:42:06;;;;;;;3.95;1.75;;;21.80;56.50;;;;;;4937597;28;92952;-84
2022/05/26 01:45:07;;;;;;;3.58;1.95;;;21.70;56.40;;;;;;4930207;28;94586;-83
2022/05/26 01:47:54;;;;;;;2.90;1.70;;;21.80;56.30;;;;;;4925375;28;96634;-83
2022/05/26 01:50:36;;;;;;;3.45;1.52;;;21.80;56.30;;;;;;4930780;28;92337;-83
2022/05/26 01:53:09;;;;;;;3.00;1.63;;;21.70;56.30;;;;;;4931899;28;92121;-85
2022/05/26 01:55:52;;;;;;;4.25;1.77;;;21.70;56.40;;;;;;4930292;28;93657;-84
2022/05/26 01:58:42;;;;;;;3.65;1.70;;;21.70;56.30;;;;;;4929847;28;92894;-83
2022/05/26 02:01:19;;;;;;;2.05;1.40;;;21.70;56.20;;;;;;4931068;28;92493;-84
2022/05/26 02:03:47;;;;;;;2.58;1.58;;;21.70;56.90;;;;;;4930593;28;91804;-85
2022/05/26 02:06:34;;;;;;;3.03;1.70;;;21.70;56.20;;;;;;4929224;28;95930;-83
2022/05/26 02:09:17;;;;;;;2.95;1.45;;;21.70;56.20;;;;;;4930197;28;92491;-84
2022/05/26 02:12:10;;;;;;;2.63;1.42;;;21.70;56.30;;;;;;4930815;28;93225;-88
2022/05/26 02:14:44;;;;;;;3.92;1.60;;;21.70;56.30;;;;;;4931889;28;92451;-86
2022/05/26 02:17:36;;;;;;;2.65;1.33;;;21.70;56.40;;;;;;4930677;28;92971;-84
2022/05/26 02:20:08;;;;;;;2.65;1.45;;;21.70;56.20;;;;;;4926491;28;95120;-85
2022/05/26 02:22:52;;;;;;;2.22;1.48;;;21.70;56.30;;;;;;4931501;28;92734;-85
2022/05/26 02:25:22;;;;;;;2.60;1.20;;;21.70;56.30;;;;;;4929972;28;92347;-84
2022/05/26 02:27:52;;;;;;;3.13;1.73;;;21.70;56.40;;;;;;4928565;28;95445;-86
2022/05/26 02:30:21;;;;;;;2.10;1.40;;;21.70;56.40;;;;;;4930902;28;92011;-85
2022/05/26 02:32:50;;;;;;;1.60;1.48;;;21.70;57.00;;;;;;4930237;28;92251;-85
2022/05/26 02:35:18;;;;;;;2.47;1.35;;;21.70;56.30;;;;;;4931613;28;92671;-88
2022/05/26 02:37:47;;;;;;;3.92;2.03;;;21.70;56.30;;;;;;4929525;28;93694;-88
2022/05/26 02:40:14;;;;;;;2.63;1.65;;;21.70;56.30;;;;;;4945732;28;96575;-86
2022/05/26 02:42:55;;;;;;;2.42;1.40;;;21.70;56.40;;;;;;4931798;28;92362;-87
2022/05/26 02:45:58;;;;;;;2.08;1.42;;;21.70;56.50;;;;;;4931587;28;92718;-85
2022/05/26 02:48:37;;;;;;;1.85;1.33;;;21.70;56.50;;;;;;4929432;28;94175;-85
2022/05/26 02:51:24;;;;;;;2.07;1.40;;;21.70;56.50;;;;;;4931592;28;92669;-88
2022/05/26 02:54:13;;;;;;;2.13;1.30;;;21.70;56.40;;;;;;4932030;28;92247;-88
2022/05/26 02:57:07;;;;;;;2.10;1.33;;;21.70;56.30;;;;;;4910746;28;91860;-88
2022/05/26 02:59:32;;;;;;;2.25;1.20;;;21.70;56.30;;;;;;4928892;28;95319;-86
2022/05/26 03:02:12;;;;;;;2.53;1.50;;;21.70;56.50;;;;;;4930970;28;92532;-85
2022/05/26 03:04:45;;;;;;;2.83;1.50;;;21.70;56.40;;;;;;4929964;28;93405;-86
2022/05/26 03:07:22;;;;;;;1.98;1.33;;;21.70;56.40;;;;;;4946346;28;92419;-87
2022/05/26 03:09:47;;;;;;;2.38;1.50;;;21.70;56.40;;;;;;4931071;28;94071;-88
2022/05/26 03:12:39;;;;;;;1.77;1.40;;;21.70;56.50;;;;;;4931235;28;93074;-88
2022/05/26 03:15:09;;;;;;;2.28;1.60;;;21.70;56.50;;;;;;4937626;28;92695;-85
2022/05/26 03:17:35;;;;;;;2.28;1.33;;;21.70;56.50;;;;;;4931163;28;92711;-89
2022/05/26 03:20:01;;;;;;;2.00;1.38;;;21.70;56.50;;;;;;4930508;28;96371;-87
2022/05/26 03:22:27;;;;;;;2.28;1.38;;;21.60;56.50;;;;;;4930247;28;95325;-87
2022/05/26 03:24:53;;;;;;;2.53;1.50;;;21.70;56.40;;;;;;4931872;28;92092;-87
2022/05/26 03:27:19;;;;;;;2.13;1.40;;;21.70;56.30;;;;;;4931441;28;92741;-88
2022/05/26 03:29:45;;;;;;;3.15;1.77;;;21.60;56.30;;;;;;4929442;28;96919;-88
2022/05/26 03:32:11;;;;;;;2.38;1.67;;;21.60;56.30;;;;;;4930185;28;96327;-86
2022/05/26 03:42:53;;;;;;;1.98;1.20;;;21.70;56.30;;;;;;4931518;28;92373;-86
2022/05/26 03:45:22;;;;;;;2.47;1.50;;;21.60;56.50;;;;;;4931637;28;92781;-87
2022/05/26 03:47:48;;;;;;;2.58;1.30;;;21.60;56.40;;;;;;4931016;28;91929;-88
2022/05/26 03:50:15;;;;;;;2.65;1.63;;;21.60;56.40;;;;;;4930565;28;92477;-87
2022/05/26 03:52:40;;;;;;;2.67;1.70;;;21.60;56.50;;;;;;4931737;28;92890;-88
2022/05/26 03:55:06;;;;;;;2.42;1.40;;;21.60;56.50;;;;;;4931048;28;93344;-88
2022/05/26 03:57:32;;;;;;;2.47;1.40;;;21.60;56.60;;;;;;4936003;28;92601;-87
2022/05/26 03:59:58;;;;;;;2.53;1.45;;;21.60;56.50;;;;;;4937669;28;93014;-88
2022/05/26 04:02:25;;;;;;;2.13;1.58;;;21.60;56.60;;;;;;4937495;28;92721;-87
2022/05/26 04:04:51;;;;;;;1.65;1.35;;;21.60;56.50;;;;;;4937533;28;92856;-86
2022/05/26 04:07:16;;;;;;;2.13;1.40;;;21.60;56.30;;;;;;4937467;28;92269;-86
2022/05/26 04:09:42;;;;;;;2.22;1.70;;;21.60;56.40;;;;;;4937184;28;92509;-88
2022/05/26 04:12:17;;;;;;;2.13;1.30;;;21.60;56.30;;;;;;4934417;28;95881;-85
2022/05/26 04:14:43;;;;;;;1.65;1.20;;;21.60;56.30;;;;;;4937745;28;92534;-87
2022/05/26 04:17:08;;;;;;;2.40;1.35;;;21.60;56.50;;;;;;4936392;28;92589;-86
2022/05/26 04:19:35;;;;;;;2.35;1.70;;;21.60;56.50;;;;;;4935738;28;94100;-86
2022/05/26 04:22:16;;;;;;;1.83;1.42;;;21.60;56.30;;;;;;4935719;28;96447;-87
2022/05/26 04:24:47;;;;;;;2.38;1.85;;;21.60;56.40;;;;;;4937369;28;92750;-86
2022/05/26 04:27:15;;;;;;;1.35;1.15;;;21.60;57.00;;;;;;4937300;28;92047;-87
2022/05/26 04:29:41;;;;;;;2.10;1.20;;;21.60;56.40;;;;;;4936766;28;92743;-87
2022/05/26 04:32:07;;;;;;;2.08;1.55;;;21.50;56.40;;;;;;4936058;28;92529;-88
2022/05/26 04:34:33;;;;;;;1.63;1.35;;;21.50;56.30;;;;;;4936316;28;92054;-86
2022/05/26 04:36:59;;;;;;;2.30;1.33;;;21.60;56.40;;;;;;4936647;28;92424;-87
2022/05/26 04:39:25;;;;;;;2.65;1.50;;;21.60;56.50;;;;;;4936641;28;92739;-88
2022/05/26 04:41:57;;;;;;;1.80;1.20;;;21.60;56.30;;;;;;4935646;28;92815;-87
2022/05/26 04:44:23;;;;;;;1.50;1.15;;;21.60;56.50;;;;;;4934666;28;93663;-88
2022/05/26 04:46:49;;;;;;;2.03;1.40;;;21.60;56.50;;;;;;4936431;28;92292;-88
2022/05/26 04:49:15;;;;;;;1.52;1.38;;;21.60;56.50;;;;;;4936691;28;93170;-87
2022/05/26 04:51:41;;;;;;;2.60;1.63;;;21.50;56.50;;;;;;4937460;28;92517;-88
2022/05/26 04:54:08;;;;;;;1.85;1.38;;;21.60;56.50;;;;;;4937084;28;92673;-87
2022/05/26 04:56:35;;;;;;;1.88;1.40;;;21.60;56.50;;;;;;4934983;28;92689;-87
2022/05/26 04:59:01;;;;;;;2.75;1.80;;;21.60;56.50;;;;;;4935704;28;93068;-87
2022/05/26 05:01:26;;;;;;;1.83;1.35;;;21.50;56.30;;;;;;4937014;28;92321;-87
2022/05/26 05:03:52;;;;;;;3.63;1.63;;;21.50;56.50;;;;;;4936604;28;93146;-87
2022/05/26 05:06:18;;;;;;;1.80;1.35;;;21.50;56.40;;;;;;4936472;28;92603;-87
2022/05/26 05:08:44;;;;;;;2.63;1.70;;;21.50;56.40;;;;;;4932060;28;94061;-87
2022/05/26 05:11:11;;;;;;;2.28;1.35;;;21.60;56.30;;;;;;4932823;28;93771;-87
2022/05/26 05:13:38;;;;;;;3.83;1.50;;;21.60;56.50;;;;;;4933972;28;92137;-88
2022/05/26 05:16:10;;;;;;;4.20;1.20;;;21.50;56.40;;;;;;4932296;28;92140;-87
2022/05/26 05:18:36;;;;;;;2.20;1.65;;;21.60;56.60;;;;;;4930392;28;95783;-87
2022/05/26 05:21:07;;;;;;;1.75;1.40;;;21.60;56.70;;;;;;4932022;28;92593;-87
2022/05/26 05:23:37;;;;;;;3.22;1.60;;;21.60;56.70;;;;;;4932490;28;92414;-88
2022/05/26 05:26:04;;;;;;;2.42;1.50;;;21.50;56.90;;;;;;4932810;28;92097;-86
2022/05/26 05:28:35;;;;;;;3.17;1.42;;;21.60;57.00;;;;;;4930477;28;92958;-88
2022/05/26 05:31:11;;;;;;;7.55;1.80;;;21.50;56.80;;;;;;4930279;28;93724;-89
2022/05/26 05:33:46;;;;;;;4.78;1.30;;;21.60;56.70;;;;;;4932408;28;93744;-86
2022/05/26 05:36:33;;;;;;;10.35;1.73;;;21.50;55.70;;;;;;4932093;28;92814;-87
2022/05/26 05:39:00;;;;;;;7.78;2.40;;;21.60;55.90;;;;;;4946742;28;94333;-88
2022/05/26 05:41:27;;;;;;;6.28;2.13;;;21.60;55.90;;;;;;4930996;28;95340;-88
2022/05/26 05:43:54;;;;;;;7.47;2.22;;;21.60;56.40;;;;;;4933239;28;92207;-86
2022/05/26 05:46:20;;;;;;;9.63;2.40;;;21.50;56.20;;;;;;4931253;28;92240;-88
2022/05/26 05:48:46;;;;;;;10.18;2.92;;;21.60;56.30;;;;;;4928116;28;95355;-87
2022/05/26 05:51:13;;;;;;;8.70;2.60;;;21.60;56.40;;;;;;4934001;28;92774;-86
2022/05/26 05:53:39;;;;;;;7.60;2.25;;;21.50;56.40;;;;;;4933772;28;92580;-87
2022/05/26 05:56:05;;;;;;;9.05;2.60;;;21.60;56.50;;;;;;4931903;28;92795;-87
2022/05/26 05:58:31;;;;;;;10.60;2.38;;;21.50;56.60;;;;;;4933774;28;94306;-85
2022/05/26 06:03:23;;;;;;;8.18;2.85;;;21.60;56.60;;;;;;4914639;22;93590;-67
2022/05/26 06:05:49;;;;;;;5.78;2.35;;;21.50;56.80;;;;;;4910751;28;92441;-67
2022/05/26 06:08:14;;;;;;;7.65;2.42;;;21.60;56.90;;;;;;4903898;28;93102;-67
2022/05/26 06:10:41;;;;;;;13.00;2.97;;;21.50;57.10;;;;;;4904142;28;92829;-67
2022/05/26 06:13:09;;;;;;;14.52;2.53;;;21.60;57.10;;;;;;4910125;28;92123;-67
2022/05/26 06:15:35;;;;;;;6.00;2.30;;;21.60;57.00;;;;;;4924678;28;91994;-67
2022/05/26 06:18:20;;;;;;;6.97;2.10;;;21.60;57.30;;;;;;4910225;28;92944;-67
2022/05/26 06:20:50;;;;;;;7.10;2.15;;;21.60;57.30;;;;;;4891897;28;94192;-66
2022/05/26 06:23:17;;;;;;;9.90;2.50;;;21.60;57.50;;;;;;4906999;28;93773;-67
2022/05/26 06:25:43;;;;;;;7.78;2.75;;;21.60;57.50;;;;;;4906871;28;93479;-68
2022/05/26 06:30:53;;;;;;;13.75;3.22;;;21.60;57.70;;;;;;4907411;28;93364;-67
2022/05/26 06:38:47;;;;;;;20.80;3.80;;;21.60;57.70;;;;;;4907254;28;92749;-67
2022/05/26 06:44:03;;;;;;;22.95;5.30;;;21.60;57.60;;;;;;4909433;28;92364;-67
2022/05/26 06:46:29;;;;;;;17.17;4.13;;;21.60;57.70;;;;;;4909363;28;92529;-67
2022/05/26 06:48:57;;;;;;;19.00;4.80;;;21.60;57.50;;;;;;4908862;28;94086;-68
2022/05/26 06:51:26;;;;;;;12.77;4.43;;;21.60;57.40;;;;;;4908984;28;93780;-67
2022/05/26 06:53:54;;;;;;;20.33;5.10;;;21.50;57.40;;;;;;4908237;28;93156;-68
2022/05/26 06:56:20;;;;;;;14.30;3.60;;;21.60;57.60;;;;;;4934240;23;92567;-63
2022/05/26 06:58:46;;;;;;;17.95;4.60;;;21.60;57.60;;;;;;4910081;28;93308;-64
2022/05/26 07:01:14;;;;;;;16.77;5.05;;;21.60;57.50;;;;;;4908612;28;93956;-63
2022/05/26 07:03:40;;;;;;;17.42;4.18;;;21.60;57.40;;;;;;4909127;28;92604;-64
2022/05/26 07:06:16;;;;;;;15.88;4.70;;;21.60;57.30;;;;;;4909460;28;92013;-64
2022/05/26 07:08:44;;;;;;;15.50;5.38;;;21.60;57.40;;;;;;4909238;28;93345;-64
2022/05/26 07:11:10;;;;;;;12.75;4.53;;;21.60;57.30;;;;;;4906764;28;93929;-64
2022/05/26 07:13:36;;;;;;;16.73;4.55;;;21.50;57.30;;;;;;4907579;28;93266;-63
2022/05/26 07:16:01;;;;;;;22.90;5.75;;;21.50;57.30;;;;;;4908346;28;92002;-64
2022/05/26 07:18:27;;;;;;;17.23;4.78;;;21.60;57.60;;;;;;4907838;28;93207;-64
2022/05/26 07:20:53;;;;;;;20.75;5.28;;;21.50;57.40;;;;;;4908423;28;93080;-64
2022/05/26 07:23:19;;;;;;;15.80;4.57;;;21.60;57.40;;;;;;4908636;28;92943;-65
2022/05/26 07:25:45;;;;;;;14.65;4.70;;;21.60;57.40;;;;;;4908794;28;92863;-64
2022/05/26 07:28:14;;;;;;;18.10;4.82;;;21.60;57.40;;;;;;4916095;28;96207;-64
2022/05/26 07:30:41;;;;;;;13.30;4.03;;;21.60;57.30;;;;;;4908098;28;92441;-64
2022/05/26 07:33:07;;;;;;;16.67;4.68;;;21.60;57.30;;;;;;4907902;28;92904;-64
2022/05/26 07:35:33;;;;;;;16.27;4.82;;;21.60;57.50;;;;;;4908884;28;93022;-64
2022/05/26 07:43:31;;;;;;;13.18;4.57;;;21.50;57.20;;;;;;4904349;28;92182;-64
2022/05/26 07:45:57;;;;;;;18.70;6.13;;;21.60;57.20;;;;;;4905492;28;92552;-64
2022/05/26 07:48:23;;;;;;;19.08;5.85;;;21.50;57.20;;;;;;4907828;28;93383;-64
2022/05/26 07:50:48;;;;;;;22.15;6.65;;;21.60;57.30;;;;;;4908030;28;93029;-64
2022/05/26 07:53:14;;;;;;;14.75;5.03;;;21.60;57.40;;;;;;4884556;28;92403;-64
2022/05/26 07:55:42;;;;;;;15.77;5.28;;;21.60;57.70;;;;;;4920470;28;91165;-64
2022/05/26 07:58:10;;;;;;;21.02;5.60;;;21.60;57.60;;;;;;4907349;28;93121;-65
2022/05/26 08:00:36;;;;;;;15.98;5.93;;;21.60;57.70;;;;;;4907898;28;92508;-64
2022/05/26 08:03:01;;;;;;;19.75;6.22;;;21.60;57.90;;;;;;4905661;28;93898;-64
2022/05/26 08:05:27;;;;;;;21.95;5.93;;;21.60;57.90;;;;;;4908107;28;92132;-64
2022/05/26 08:07:53;;;;;;;23.00;7.20;;;21.70;57.80;;;;;;4907685;28;93818;-63
2022/05/26 08:10:20;;;;;;;21.90;6.70;;;21.70;58.10;;;;;;4907747;28;94150;-64
2022/05/26 08:12:46;;;;;;;18.52;6.38;;;21.70;58.20;;;;;;4908522;28;92918;-63
2022/05/26 08:15:12;;;;;;;26.02;7.90;;;21.70;58.40;;;;;;4909712;28;92611;-63
2022/05/26 08:17:39;;;;;;;18.05;6.20;;;21.70;58.40;;;;;;4910516;28;93108;-63
2022/05/26 08:20:06;;;;;;;20.48;6.15;;;21.70;58.50;;;;;;4908830;28;91885;-65
2022/05/26 08:22:32;;;;;;;19.65;6.18;;;21.70;58.50;;;;;;4908388;28;92860;-64
2022/05/26 08:24:59;;;;;;;19.58;6.65;;;21.70;58.50;;;;;;4908508;28;93388;-64
2022/05/26 08:27:25;;;;;;;34.92;7.90;;;21.80;58.60;;;;;;4907338;28;94396;-64
2022/05/26 08:29:54;;;;;;;38.08;7.10;;;21.80;58.70;;;;;;4908406;28;93231;-64
2022/05/26 08:32:21;;;;;;;32.47;7.25;;;21.80;58.80;;;;;;4907261;28;92315;-64
2022/05/26 08:34:47;;;;;;;18.90;6.75;;;21.80;58.80;;;;;;4907384;28;92271;-64
2022/05/26 08:37:18;;;;;;;26.20;6.88;;;21.80;58.90;;;;;;4908136;28;93041;-64
2022/05/26 08:39:44;;;;;;;28.20;7.40;;;21.80;58.90;;;;;;4907224;28;92789;-64
2022/05/26 08:42:17;;;;;;;35.85;9.75;;;21.80;59.50;;;;;;4906960;28;93224;-64
2022/05/26 08:44:43;;;;;;;29.40;9.65;;;21.80;59.10;;;;;;4911298;28;91735;-63
2022/05/26 08:47:10;;;;;;;32.45;9.50;;;21.80;59.90;;;;;;4907594;28;93243;-64
2022/05/26 08:49:35;;;;;;;23.83;8.23;;;21.80;59.70;;;;;;4910435;28;93278;-64
2022/05/26 08:52:10;;;;;;;26.80;8.05;;;21.80;59.70;;;;;;4910567;28;93994;-63
2022/05/26 08:54:38;;;;;;;23.90;8.10;;;21.80;59.60;;;;;;4911055;28;93171;-64
2022/05/26 08:57:08;;;;;;;18.83;6.93;;;21.80;59.60;;;;;;4909762;28;93222;-63
2022/05/26 08:59:39;;;;;;;23.80;7.05;;;21.80;59.20;;;;;;4908735;28;95090;-63
2022/05/26 09:02:21;;;;;;;29.33;8.23;;;21.80;59.30;;;;;;4911611;28;92632;-64
2022/05/26 09:04:47;;;;;;;24.80;7.35;;;21.80;59.70;;;;;;4911584;28;92940;-64
2022/05/26 09:13:03;;;;;;;22.23;6.80;;;21.80;59.60;;;;;;4911076;28;92477;-64
2022/05/26 09:15:32;;;;;;;20.30;5.35;;;21.80;59.40;;;;;;4908256;28;92474;-64
2022/05/26 09:17:59;;;;;;;19.40;6.32;;;21.80;59.40;;;;;;4908377;28;93626;-64
2022/05/26 09:20:36;;;;;;;24.38;6.47;;;21.80;59.50;;;;;;4909398;28;93906;-64
2022/05/26 09:23:29;;;;;;;14.85;5.43;;;21.80;59.40;;;;;;4910131;28;93139;-62
2022/05/26 09:26:11;;;;;;;18.50;5.57;;;21.80;59.20;;;;;;4908829;28;92797;-63
2022/05/26 09:28:46;;;;;;;13.68;4.68;;;21.80;59.80;;;;;;4908771;28;93717;-63
2022/05/26 09:31:32;;;;;;;15.18;5.35;;;21.80;58.80;;;;;;4908686;28;93478;-64
2022/05/26 09:34:14;;;;;;;16.50;4.75;;;21.80;60.20;;;;;;4909828;28;92504;-64
2022/05/26 09:36:48;;;;;;;12.60;4.78;;;21.90;60.00;;;;;;4910461;28;92135;-64
2022/05/26 09:39:37;;;;;;;13.90;4.53;;;21.80;59.70;;;;;;4910184;28;93840;-64
2022/05/26 09:42:17;;;;;;;19.67;4.57;;;21.80;59.60;;;;;;4909834;28;93234;-64
2022/05/26 09:45:10;;;;;;;14.75;4.45;;;21.80;59.40;;;;;;4909732;28;93976;-64
2022/05/26 09:47:44;;;;;;;15.88;4.65;;;21.80;58.90;;;;;;4910343;28;92956;-64
2022/05/26 09:50:36;;;;;;;13.02;4.28;;;21.80;58.90;;;;;;4910010;28;93087;-63
2022/05/26 09:53:05;;;;;;;10.38;4.60;;;21.80;59.00;;;;;;4909397;28;92941;-63
2022/05/26 09:55:40;;;;;;;11.80;4.90;;;21.80;58.90;;;;;;4908809;28;93567;-63
2022/05/26 09:58:14;;;;;;;11.05;4.43;;;21.80;59.10;;;;;;4909659;28;93020;-64
2022/05/26 10:00:43;;;;;;;10.13;4.32;;;21.80;59.10;;;;;;4910150;28;93286;-64
2022/05/26 10:03:29;;;;;;;17.77;5.28;;;21.90;59.40;;;;;;4909692;28;92798;-63
2022/05/26 10:06:11;;;;;;;12.80;4.80;;;21.90;59.40;;;;;;4909946;28;92808;-64
2022/05/26 10:08:44;;;;;;;12.50;4.93;;;21.90;59.50;;;;;;4910069;28;92802;-64
2022/05/26 10:11:19;;;;;;;11.75;5.20;;;21.90;59.70;;;;;;4909216;28;94928;-64
2022/05/26 10:14:21;;;;;;;13.18;5.65;;;21.90;59.70;;;;;;4909652;28;94607;-63
2022/05/26 10:17:13;;;;;;;16.23;5.35;;;21.90;59.70;;;;;;4906352;28;92626;-64
2022/05/26 10:20:00;;;;;;;10.18;4.75;;;21.90;59.70;;;;;;4906900;28;93051;-64
2022/05/26 10:22:47;;;;;;;12.35;4.50;;;21.90;58.70;;;;;;4907787;28;94557;-63
2022/05/26 10:25:35;;;;;;;10.13;5.28;;;21.90;57.50;;;;;;4908615;28;93392;-64
2022/05/26 10:28:41;;;;;;;11.60;5.28;;;21.90;59.30;;;;;;4906624;28;92006;-64
2022/05/26 10:31:26;;;;;;;20.88;4.72;;;21.90;59.20;;;;;;4902621;28;92021;-62
2022/05/26 10:34:35;;;;;;;10.60;5.43;;;21.90;59.00;;;;;;4906991;28;93469;-64
2022/05/26 10:37:17;;;;;;;15.07;5.80;;;21.90;59.20;;;;;;4884528;28;93116;-63
2022/05/26 10:40:05;;;;;;;19.42;6.90;;;21.90;59.00;;;;;;4905482;28;94225;-64
2022/05/26 10:43:00;;;;;;;15.57;5.63;;;21.90;59.00;;;;;;4909221;28;93097;-64
2022/05/26 10:45:39;;;;;;;14.27;5.35;;;21.80;59.10;;;;;;4906912;28;94544;-63
2022/05/26 10:48:26;;;;;;;10.13;5.40;;;21.90;59.60;;;;;;4907776;28;92868;-63
2022/05/26 10:51:18;;;;;;;12.38;5.13;;;21.90;59.00;;;;;;4909121;28;92782;-63
2022/05/26 10:53:59;;;;;;;15.30;5.55;;;21.90;58.90;;;;;;4909340;28;92995;-64
2022/05/26 10:56:48;;;;;;;12.85;5.72;;;21.90;59.00;;;;;;4908819;28;93552;-63
2022/05/26 10:59:14;;;;;;;;;;;21.90;59.00;;;;;;4910222;28;92397;-63
2022/05/26 11:02:00;;;;;;;16.98;5.60;;;21.90;58.90;;;;;;4910605;28;92117;-63
2022/05/26 11:04:51;;;;;;;16.10;5.53;;;21.90;58.80;;;;;;4909848;28;92954;-64
2022/05/26 11:07:26;;;;;;;13.07;5.45;;;21.90;58.80;;;;;;4907217;28;94288;-63
2022/05/26 11:09:59;;;;;;;12.93;4.93;;;21.90;58.90;;;;;;4909653;28;93865;-64
2022/05/26 11:12:35;;;;;;;16.05;5.93;;;21.90;59.00;;;;;;4907658;28;92392;-63
2022/05/26 11:18:21;;;;;;;10.90;5.22;;;21.90;59.50;;;;;;4909258;28;92296;-63
2022/05/26 11:20:53;;;;;;;16.50;5.50;;;21.90;59.00;;;;;;4907593;28;94682;-64
2022/05/26 11:23:24;;;;;;;15.15;5.25;;;21.90;58.90;;;;;;4908812;28;92038;-63
2022/05/26 11:26:02;;;;;;;13.55;4.75;;;21.90;59.00;;;;;;4909332;28;92539;-63
2022/05/26 11:28:34;;;;;;;10.85;5.10;;;21.90;59.00;;;;;;4909135;28;92858;-63
2022/05/26 11:36:59;;;;;;;9.35;5.85;;;21.90;58.80;;;;;;4909108;28;92486;-63
2022/05/26 11:39:44;;;;;;;11.00;5.45;;;21.90;58.80;;;;;;4909433;28;93291;-64
2022/05/26 11:42:24;;;;;;;9.63;5.25;;;21.90;58.70;;;;;;4907910;28;92731;-63
2022/05/26 11:45:09;;;;;;;10.77;5.35;;;21.90;58.80;;;;;;4906309;28;93255;-63
2022/05/26 11:47:48;;;;;;;10.88;5.10;;;21.90;58.60;;;;;;4907814;28;92949;-63
2022/05/26 11:50:49;;;;;;;9.30;5.15;;;21.90;58.70;;;;;;4908303;28;93374;-63
2022/05/26 11:53:29;;;;;;;9.63;5.25;;;21.90;58.80;;;;;;4907855;28;94468;-63
2022/05/26 11:56:16;;;;;;;13.13;5.43;;;22.00;58.90;;;;;;4908206;28;92781;-63
2022/05/26 11:58:44;;;;;;;9.32;4.75;;;21.90;58.90;;;;;;4904443;28;92420;-63
2022/05/26 12:01:34;;;;;;;14.52;5.13;;;21.90;58.60;;;;;;4908632;28;95027;-63
2022/05/26 12:04:05;;;;;;;9.43;4.97;;;21.90;58.80;;;;;;4907782;28;93767;-64
2022/05/26 12:06:33;;;;;;;11.45;5.22;;;21.90;58.70;;;;;;4908581;28;92033;-64
2022/05/26 12:09:30;;;;;;;8.30;5.00;;;21.90;58.70;;;;;;4908372;28;92591;-63
2022/05/26 12:11:56;;;;;;;11.57;4.82;;;21.90;58.80;;;;;;4891645;28;92945;-63
2022/05/26 12:14:27;;;;;;;11.98;4.80;;;21.90;58.60;;;;;;4908911;28;93173;-64
2022/05/26 12:17:28;;;;;;;10.60;5.18;;;21.90;58.60;;;;;;4908578;28;92037;-64
2022/05/26 12:19:55;;;;;;;11.50;4.90;;;21.90;58.60;;;;;;4911646;28;92114;-63
2022/05/26 12:22:31;;;;;;;8.15;4.85;;;21.90;58.60;;;;;;4911963;28;92707;-64
2022/05/26 12:24:59;;;;;;;10.60;5.25;;;21.90;58.60;;;;;;4911760;28;93234;-63
2022/05/26 12:27:58;;;;;;;10.27;4.97;;;21.90;58.70;;;;;;4911806;28;93881;-63
2022/05/26 12:31:07;;;;;;;7.78;4.20;;;21.90;58.50;;;;;;4912255;28;92366;-63
2022/05/26 12:34:02;;;;;;;10.77;5.38;;;21.90;58.60;;;;;;4910834;28;93411;-63
2022/05/26 12:36:31;;;;;;;10.30;5.30;;;22.00;58.80;;;;;;4911601;28;93531;-63
2022/05/26 12:39:25;;;;;;;8.07;4.53;;;21.90;58.50;;;;;;4912093;28;92155;-63
2022/05/26 12:42:18;;;;;;;7.93;4.07;;;22.00;58.70;;;;;;4911696;28;92159;-64
2022/05/26 12:44:59;;;;;;;8.40;4.68;;;21.90;58.60;;;;;;4910859;28;95339;-63
2022/05/26 12:47:36;;;;;;;15.35;5.78;;;21.90;58.50;;;;;;4910207;28;94201;-64
2022/05/26 12:50:09;;;;;;;9.15;4.28;;;21.90;58.60;;;;;;4911721;28;92677;-64
2022/05/26 12:52:55;;;;;;;7.03;4.40;;;21.90;58.60;;;;;;4911239;28;92298;-64
2022/05/26 12:55:27;;;;;;;5.95;4.30;;;21.90;58.50;;;;;;4910383;28;94330;-64
2022/05/26 12:57:52;;;;;;;9.98;4.65;;;22.00;58.40;;;;;;4911229;28;95187;-64
2022/05/26 13:00:30;;;;;;;7.18;4.30;;;21.90;58.60;;;;;;4911493;28;92338;-63
2022/05/26 13:03:04;;;;;;;8.93;4.60;;;21.90;58.40;;;;;;4911494;28;92579;-63
2022/05/26 13:05:43;;;;;;;7.55;4.18;;;21.90;58.40;;;;;;4911576;28;95805;-64
2022/05/26 13:08:19;;;;;;;6.72;4.28;;;21.90;58.40;;;;;;4911468;28;92916;-63
2022/05/26 13:10:47;;;;;;;9.15;4.63;;;21.90;58.50;;;;;;4910648;28;92422;-64
2022/05/26 13:13:37;;;;;;;7.80;4.05;;;22.00;58.40;;;;;;4911703;28;92635;-63
2022/05/26 13:16:27;;;;;;;6.40;4.25;;;21.90;58.40;;;;;;4910959;28;92661;-63
2022/05/26 13:18:56;;;;;;;9.02;4.10;;;21.90;58.40;;;;;;4909794;28;95582;-64
2022/05/26 13:21:29;;;;;;;7.32;4.40;;;21.90;58.40;;;;;;4909566;28;93817;-64
2022/05/26 13:23:55;;;;;;;7.10;4.38;;;21.90;58.30;;;;;;4910996;28;92765;-63
2022/05/26 13:26:22;;;;;;;8.93;4.35;;;21.90;58.40;;;;;;4910403;28;93090;-63
2022/05/26 13:28:54;;;;;;;5.90;4.28;;;21.90;58.40;;;;;;4909266;28;93654;-63
2022/05/26 13:34:07;;;;;;;7.80;4.07;;;21.90;58.30;;;;;;4910999;28;92937;-63
2022/05/26 13:36:35;;;;;;;8.45;4.00;;;21.90;58.30;;;;;;4910583;28;94272;-63
2022/05/26 13:39:16;;;;;;;8.03;4.20;;;21.90;58.40;;;;;;4911290;28;92846;-64
2022/05/26 13:41:44;;;;;;;6.50;3.97;;;21.90;58.60;;;;;;4909999;28;92466;-63
2022/05/26 13:44:15;;;;;;;5.90;3.75;;;21.90;58.40;;;;;;4910965;28;92899;-64
2022/05/26 13:46:50;;;;;;;6.57;3.42;;;21.90;58.40;;;;;;4910308;28;94206;-63
2022/05/26 13:49:39;;;;;;;6.63;3.63;;;22.00;58.50;;;;;;4910930;28;93199;-64
2022/05/26 13:52:24;;;;;;;5.32;3.63;;;21.90;58.40;;;;;;4906887;28;93050;-64
2022/05/26 13:54:58;;;;;;;5.70;3.78;;;22.00;58.50;;;;;;4910567;28;92919;-63
2022/05/26 13:57:33;;;;;;;9.63;2.85;;;21.90;58.10;;;;;;4910269;28;92742;-63
2022/05/26 14:00:03;;;;;;;8.40;3.28;;;21.90;56.80;;;;;;4924991;28;95223;-63